Forestport Station, New York
Current Conditions -  °F | °C
As of 9:07 PM on Wednesday 26 Nov 2014 (Local Time) from KRME Reporting Station
Light Snow Light Snow  
Wind Chill: 20°   Ceiling: 2200
Heat Index: 29°   Visibility: 2mi
Dew Point: 27°   Wind: 9mph
Humidity: 92%   Direction: 320°NW
Pressure: 29.99"   Gusts: NA
Location:  43.501°N, 75.1602°W
Report Text: KRME 270207Z AUTO 32008KT 2SM -SN BR FEW016 OVC022 M02/M03 A2999 RMK AO2 P0000 T10171028
Loading
Personal Weather Stations






























Interactive Weather Map New forecast layout! Learn more

10-Day Weather Forecast

Advertisements
Track Severe Weather on mobile